createdAt,value
2018-07-03T00:00:29.616Z,1.57
2018-07-03T00:02:58.569Z,1.30
2018-07-03T00:05:27.489Z,1.30
2018-07-03T00:07:56.259Z,1.33
2018-07-03T00:10:25.086Z,1.10
2018-07-03T00:12:54.021Z,1.30
2018-07-03T00:15:25.686Z,1.50
2018-07-03T00:17:54.648Z,1.50
2018-07-03T00:20:23.377Z,1.20
2018-07-03T00:22:52.349Z,1.40
2018-07-03T00:25:21.235Z,1.20
2018-07-03T00:27:50.013Z,1.10
2018-07-03T00:30:18.855Z,1.40
2018-07-03T00:32:47.747Z,1.40
2018-07-03T00:35:16.562Z,1.33
2018-07-03T00:37:45.656Z,1.30
2018-07-03T00:40:14.477Z,1.47
2018-07-03T00:42:43.651Z,1.67
2018-07-03T00:45:12.601Z,1.40
2018-07-03T00:47:41.561Z,1.60
2018-07-03T00:50:10.479Z,1.40
2018-07-03T00:52:39.285Z,1.40
2018-07-03T00:55:08.262Z,1.20
2018-07-03T00:57:37.284Z,1.30
2018-07-03T01:00:17.223Z,1.27
2018-07-03T01:02:47.010Z,1.13
2018-07-03T01:05:15.886Z,1.20
2018-07-03T01:07:44.775Z,1.37
2018-07-03T01:10:14.977Z,1.17
2018-07-03T01:12:43.850Z,1.17
2018-07-03T01:15:12.990Z,1.10
2018-07-03T01:17:41.938Z,1.10
2018-07-03T01:20:10.898Z,1.50
2018-07-03T01:22:39.887Z,1.30
2018-07-03T01:25:08.732Z,1.30
2018-07-03T01:27:37.648Z,1.27
2018-07-03T01:30:06.581Z,1.53
2018-07-03T01:32:35.581Z,1.00
2018-07-03T01:35:04.483Z,1.13
2018-07-03T01:37:33.295Z,1.60
2018-07-03T01:40:02.162Z,1.30
2018-07-03T01:42:31.093Z,1.30
2018-07-03T01:44:59.926Z,1.20
2018-07-03T01:47:28.754Z,1.17
2018-07-03T01:49:57.745Z,1.30
2018-07-03T01:52:26.588Z,1.30
2018-07-03T01:54:55.418Z,1.60
2018-07-03T01:57:24.479Z,1.50
2018-07-03T01:59:53.390Z,1.37
2018-07-03T02:02:22.417Z,1.40
2018-07-03T02:04:51.341Z,2.40
2018-07-03T02:07:20.329Z,1.43
2018-07-03T02:09:49.129Z,1.77
2018-07-03T02:12:17.895Z,1.33
2018-07-03T02:14:46.822Z,1.50
2018-07-03T02:17:15.696Z,1.30
2018-07-03T02:19:44.965Z,1.40
2018-07-03T02:22:13.797Z,1.30
2018-07-03T02:24:43.116Z,1.50
2018-07-03T02:27:12.197Z,1.37
2018-07-03T02:29:41.298Z,1.57
2018-07-03T02:32:10.398Z,1.47
2018-07-03T02:34:39.411Z,1.50
2018-07-03T02:37:08.602Z,1.60
2018-07-03T02:39:37.661Z,1.67
2018-07-03T02:42:06.829Z,1.80
2018-07-03T02:44:35.685Z,1.60
2018-07-03T02:47:04.867Z,1.40
2018-07-03T02:49:33.934Z,1.90
2018-07-03T02:52:02.944Z,2.07
2018-07-03T02:54:32.916Z,1.87
2018-07-03T02:57:01.843Z,2.00
2018-07-03T02:59:30.918Z,1.73
2018-07-03T03:01:59.959Z,2.23
2018-07-03T03:04:28.938Z,2.00
2018-07-03T03:06:58.543Z,2.10
2018-07-03T03:09:27.383Z,2.60
2018-07-03T03:11:56.421Z,2.40
2018-07-03T03:14:25.273Z,2.77
2018-07-03T03:16:54.162Z,2.30
2018-07-03T03:19:23.021Z,2.13
2018-07-03T03:21:51.885Z,2.30
2018-07-03T03:24:20.806Z,2.13
2018-07-03T03:26:49.597Z,2.33
2018-07-03T03:29:18.505Z,2.53
2018-07-03T03:31:47.353Z,2.60
2018-07-03T03:34:16.299Z,2.43
2018-07-03T03:36:45.270Z,2.50
2018-07-03T03:39:14.111Z,2.27
2018-07-03T03:41:43.147Z,2.60
2018-07-03T03:44:12.029Z,2.70
2018-07-03T03:46:41.149Z,2.83
2018-07-03T03:49:10.111Z,2.27
2018-07-03T03:51:38.969Z,3.00
2018-07-03T03:54:08.104Z,2.63
2018-07-03T03:56:37.144Z,2.60
2018-07-03T03:59:06.116Z,2.60
2018-07-03T04:01:35.026Z,3.10
2018-07-03T04:04:03.936Z,2.60
2018-07-03T04:06:32.898Z,2.63
2018-07-03T04:09:01.842Z,2.70
2018-07-03T04:11:30.648Z,3.40
2018-07-03T04:13:59.510Z,2.80
2018-07-03T04:16:28.417Z,2.90
2018-07-03T04:18:57.181Z,2.87
2018-07-03T04:21:25.971Z,3.13
2018-07-03T04:23:54.792Z,3.17
2018-07-03T04:26:23.630Z,3.30
2018-07-03T04:28:52.577Z,3.17
2018-07-03T04:31:21.415Z,3.37
2018-07-03T04:33:50.385Z,3.07
2018-07-03T04:36:19.217Z,3.23
2018-07-03T04:38:48.045Z,3.30
2018-07-03T04:41:16.925Z,3.00
2018-07-03T04:43:45.785Z,3.20
2018-07-03T04:51:48.645Z,2.93
2018-07-03T04:54:17.401Z,4.10
2018-07-03T04:56:46.214Z,3.60
2018-07-03T04:59:21.922Z,3.47
2018-07-03T05:01:51.032Z,3.30
2018-07-03T05:04:20.012Z,3.30
2018-07-03T05:06:49.175Z,3.10
2018-07-03T05:10:04.607Z,3.70
2018-07-03T05:12:33.654Z,3.00
2018-07-03T05:15:02.581Z,3.33
2018-07-03T05:17:31.530Z,3.40
2018-07-03T05:20:00.497Z,3.37
2018-07-03T05:22:29.417Z,3.00
2018-07-03T05:24:58.291Z,3.23
2018-07-03T05:27:27.378Z,2.77
2018-07-03T05:30:17.066Z,3.00
2018-07-03T05:32:48.510Z,2.87
2018-07-03T05:35:17.557Z,3.20
2018-07-03T05:37:47.293Z,3.57
2018-07-03T05:40:16.169Z,3.00
2018-07-03T06:19:55.885Z,3.50
2018-07-03T07:06:20.343Z,2.07
2018-07-03T07:09:09.214Z,2.50
2018-07-03T07:52:29.348Z,1.43
2018-07-03T08:01:20.883Z,1.37
2018-07-03T08:13:50.827Z,1.40
2018-07-03T08:16:21.824Z,1.37
2018-07-03T08:19:14.080Z,1.27
2018-07-03T08:21:54.983Z,1.20
2018-07-03T08:24:24.914Z,1.40
2018-07-03T08:27:13.577Z,1.50
2018-07-03T08:30:09.377Z,1.30
2018-07-03T08:32:38.410Z,1.23
2018-07-03T08:35:07.842Z,1.40
2018-07-03T08:37:36.900Z,1.17
2018-07-03T08:40:07.113Z,1.23
2018-07-03T08:42:36.912Z,1.07
2018-07-03T08:47:13.712Z,0.97
2018-07-03T08:49:42.736Z,1.50
2018-07-03T08:52:11.782Z,1.20
2018-07-03T08:54:40.927Z,1.10
2018-07-03T08:57:09.954Z,1.20
2018-07-03T08:59:39.045Z,1.40
2018-07-03T09:02:08.094Z,1.47
2018-07-03T09:49:25.758Z,1.10
2018-07-03T09:52:06.761Z,0.98
2018-07-03T10:05:34.062Z,1.30
2018-07-03T10:08:02.726Z,0.88
2018-07-03T10:10:31.421Z,0.90
2018-07-03T10:13:00.187Z,1.00
2018-07-03T10:15:29.192Z,1.07
2018-07-03T10:17:57.898Z,0.90
2018-07-03T10:20:26.584Z,1.07
2018-07-03T10:22:55.294Z,0.85
2018-07-03T10:25:24.090Z,0.97
2018-07-03T10:27:52.857Z,0.90
2018-07-03T10:30:22.004Z,1.00
2018-07-03T10:32:50.951Z,1.10
2018-07-03T10:35:19.603Z,1.17
2018-07-03T10:37:48.248Z,1.12
